sensor_id;sensor_type;location;lat;lon;timestamp;temperature;humidity
356;DHT22;62514;48.112;11.566;2024-01-25T00:00:00;8.00;20.90
356;DHT22;62514;48.112;11.566;2024-01-25T00:02:26;8.00;21.00
356;DHT22;62514;48.112;11.566;2024-01-25T00:04:52;8.00;21.30
356;DHT22;62514;48.112;11.566;2024-01-25T00:07:18;8.10;21.60
356;DHT22;62514;48.112;11.566;2024-01-25T00:09:44;8.00;21.70
356;DHT22;62514;48.112;11.566;2024-01-25T00:12:10;8.10;22.30
356;DHT22;62514;48.112;11.566;2024-01-25T00:14:36;7.90;22.90
356;DHT22;62514;48.112;11.566;2024-01-25T00:17:02;7.90;23.10
356;DHT22;62514;48.112;11.566;2024-01-25T00:19:28;7.90;23.10
356;DHT22;62514;48.112;11.566;2024-01-25T00:21:54;8.00;23.70
356;DHT22;62514;48.112;11.566;2024-01-25T00:24:21;8.00;23.70
356;DHT22;62514;48.112;11.566;2024-01-25T00:26:47;8.00;24.30
356;DHT22;62514;48.112;11.566;2024-01-25T00:29:13;8.00;24.00
356;DHT22;62514;48.112;11.566;2024-01-25T00:31:39;8.10;23.60
356;DHT22;62514;48.112;11.566;2024-01-25T00:34:05;8.10;23.40
356;DHT22;62514;48.112;11.566;2024-01-25T00:36:31;8.10;23.20
356;DHT22;62514;48.112;11.566;2024-01-25T00:38:57;8.10;23.20
356;DHT22;62514;48.112;11.566;2024-01-25T00:41:23;8.10;23.20
356;DHT22;62514;48.112;11.566;2024-01-25T00:43:49;8.10;22.80
356;DHT22;62514;48.112;11.566;2024-01-25T00:46:16;8.10;22.40
356;DHT22;62514;48.112;11.566;2024-01-25T00:48:42;8.20;21.80
356;DHT22;62514;48.112;11.566;2024-01-25T00:51:14;8.20;21.10
356;DHT22;62514;48.112;11.566;2024-01-25T00:53:42;8.20;21.10
356;DHT22;62514;48.112;11.566;2024-01-25T00:56:08;8.20;20.20
356;DHT22;62514;48.112;11.566;2024-01-25T00:58:34;8.30;20.10
356;DHT22;62514;48.112;11.566;2024-01-25T01:01:00;8.20;20.20
356;DHT22;62514;48.112;11.566;2024-01-25T01:03:27;8.30;20.40
356;DHT22;62514;48.112;11.566;2024-01-25T01:05:53;8.20;20.20
356;DHT22;62514;48.112;11.566;2024-01-25T01:08:19;8.20;20.20
356;DHT22;62514;48.112;11.566;2024-01-25T01:10:45;8.20;20.50
356;DHT22;62514;48.112;11.566;2024-01-25T01:13:12;8.30;20.00
356;DHT22;62514;48.112;11.566;2024-01-25T01:15:38;8.20;20.20
356;DHT22;62514;48.112;11.566;2024-01-25T01:18:04;8.20;19.80
356;DHT22;62514;48.112;11.566;2024-01-25T01:20:31;8.30;19.60
356;DHT22;62514;48.112;11.566;2024-01-25T01:22:57;8.30;19.70
356;DHT22;62514;48.112;11.566;2024-01-25T01:25:22;8.20;19.80
356;DHT22;62514;48.112;11.566;2024-01-25T01:27:48;8.20;19.40
356;DHT22;62514;48.112;11.566;2024-01-25T01:30:14;8.30;19.70
356;DHT22;62514;48.112;11.566;2024-01-25T01:32:40;8.30;20.00
356;DHT22;62514;48.112;11.566;2024-01-25T01:35:06;8.30;20.00
356;DHT22;62514;48.112;11.566;2024-01-25T01:37:32;8.30;20.10
356;DHT22;62514;48.112;11.566;2024-01-25T01:39:58;8.30;20.00
356;DHT22;62514;48.112;11.566;2024-01-25T01:42:26;8.30;20.10
356;DHT22;62514;48.112;11.566;2024-01-25T01:44:52;8.30;20.00
356;DHT22;62514;48.112;11.566;2024-01-25T01:47:19;8.30;20.00
356;DHT22;62514;48.112;11.566;2024-01-25T01:49:45;8.20;20.00
356;DHT22;62514;48.112;11.566;2024-01-25T01:52:11;8.20;20.10
356;DHT22;62514;48.112;11.566;2024-01-25T01:54:38;8.20;20.00
356;DHT22;62514;48.112;11.566;2024-01-25T01:57:04;8.20;20.70
356;DHT22;62514;48.112;11.566;2024-01-25T01:59:30;8.20;20.50
356;DHT22;62514;48.112;11.566;2024-01-25T02:01:57;8.20;20.50
356;DHT22;62514;48.112;11.566;2024-01-25T02:04:23;8.20;21.00
356;DHT22;62514;48.112;11.566;2024-01-25T02:06:49;8.10;21.40
356;DHT22;62514;48.112;11.566;2024-01-25T02:09:15;8.10;21.50
356;DHT22;62514;48.112;11.566;2024-01-25T02:11:41;8.10;21.90
356;DHT22;62514;48.112;11.566;2024-01-25T02:14:07;8.10;21.60
356;DHT22;62514;48.112;11.566;2024-01-25T02:16:36;8.10;21.80
356;DHT22;62514;48.112;11.566;2024-01-25T02:19:02;8.10;22.50
356;DHT22;62514;48.112;11.566;2024-01-25T02:21:28;8.20;22.70
356;DHT22;62514;48.112;11.566;2024-01-25T02:23:54;8.10;22.90
356;DHT22;62514;48.112;11.566;2024-01-25T02:26:20;8.10;23.20
356;DHT22;62514;48.112;11.566;2024-01-25T02:28:46;8.10;23.20
356;DHT22;62514;48.112;11.566;2024-01-25T02:31:12;8.00;23.30
356;DHT22;62514;48.112;11.566;2024-01-25T02:33:38;8.10;24.10
356;DHT22;62514;48.112;11.566;2024-01-25T02:36:04;8.00;23.90
356;DHT22;62514;48.112;11.566;2024-01-25T02:38:30;8.00;24.00
356;DHT22;62514;48.112;11.566;2024-01-25T02:40:56;8.00;24.20
356;DHT22;62514;48.112;11.566;2024-01-25T02:43:22;8.00;24.30
356;DHT22;62514;48.112;11.566;2024-01-25T02:45:48;8.00;23.90
356;DHT22;62514;48.112;11.566;2024-01-25T02:48:14;8.10;23.50
356;DHT22;62514;48.112;11.566;2024-01-25T02:50:41;8.10;23.20
356;DHT22;62514;48.112;11.566;2024-01-25T02:53:07;8.00;24.10
356;DHT22;62514;48.112;11.566;2024-01-25T02:55:33;8.10;24.00
356;DHT22;62514;48.112;11.566;2024-01-25T02:57:59;8.00;24.30
356;DHT22;62514;48.112;11.566;2024-01-25T03:00:25;8.00;24.30
356;DHT22;62514;48.112;11.566;2024-01-25T03:02:50;8.00;24.40
356;DHT22;62514;48.112;11.566;2024-01-25T03:05:16;8.00;25.20
356;DHT22;62514;48.112;11.566;2024-01-25T03:07:42;8.00;25.30
356;DHT22;62514;48.112;11.566;2024-01-25T03:10:09;8.00;25.10
356;DHT22;62514;48.112;11.566;2024-01-25T03:12:35;8.10;25.00
356;DHT22;62514;48.112;11.566;2024-01-25T03:15:00;8.00;24.80
356;DHT22;62514;48.112;11.566;2024-01-25T03:17:27;8.00;25.10
356;DHT22;62514;48.112;11.566;2024-01-25T03:19:52;8.00;25.30
356;DHT22;62514;48.112;11.566;2024-01-25T03:22:18;8.00;26.00
356;DHT22;62514;48.112;11.566;2024-01-25T03:24:44;8.00;26.00
356;DHT22;62514;48.112;11.566;2024-01-25T03:27:10;8.00;26.00
356;DHT22;62514;48.112;11.566;2024-01-25T03:29:42;8.00;26.00
356;DHT22;62514;48.112;11.566;2024-01-25T03:32:12;7.90;26.40
356;DHT22;62514;48.112;11.566;2024-01-25T03:34:38;7.90;27.00
356;DHT22;62514;48.112;11.566;2024-01-25T03:37:04;7.90;27.00
356;DHT22;62514;48.112;11.566;2024-01-25T03:39:30;8.00;26.90
356;DHT22;62514;48.112;11.566;2024-01-25T03:41:56;7.90;27.60
356;DHT22;62514;48.112;11.566;2024-01-25T03:44:22;7.90;27.90
356;DHT22;62514;48.112;11.566;2024-01-25T03:46:48;8.00;27.80
356;DHT22;62514;48.112;11.566;2024-01-25T03:49:14;7.90;28.30
356;DHT22;62514;48.112;11.566;2024-01-25T03:51:40;7.90;28.20
356;DHT22;62514;48.112;11.566;2024-01-25T03:54:07;7.90;28.70
356;DHT22;62514;48.112;11.566;2024-01-25T03:56:32;7.80;28.20
356;DHT22;62514;48.112;11.566;2024-01-25T03:58:58;7.90;28.30
356;DHT22;62514;48.112;11.566;2024-01-25T04:01:24;7.80;28.50
356;DHT22;62514;48.112;11.566;2024-01-25T04:03:50;7.80;28.30
356;DHT22;62514;48.112;11.566;2024-01-25T04:06:16;7.90;27.90
356;DHT22;62514;48.112;11.566;2024-01-25T04:08:42;7.90;27.40
356;DHT22;62514;48.112;11.566;2024-01-25T04:11:08;7.90;27.40
356;DHT22;62514;48.112;11.566;2024-01-25T04:13:35;7.90;27.70
356;DHT22;62514;48.112;11.566;2024-01-25T04:16:01;7.90;27.80
356;DHT22;62514;48.112;11.566;2024-01-25T04:18:27;7.80;27.90
356;DHT22;62514;48.112;11.566;2024-01-25T04:20:53;7.90;27.70
356;DHT22;62514;48.112;11.566;2024-01-25T04:23:19;7.80;27.10
356;DHT22;62514;48.112;11.566;2024-01-25T04:25:45;7.80;27.60
356;DHT22;62514;48.112;11.566;2024-01-25T04:28:11;7.80;28.00
356;DHT22;62514;48.112;11.566;2024-01-25T04:30:37;7.80;28.10
356;DHT22;62514;48.112;11.566;2024-01-25T04:33:03;7.80;28.30
356;DHT22;62514;48.112;11.566;2024-01-25T04:35:29;7.70;28.70
356;DHT22;62514;48.112;11.566;2024-01-25T04:37:57;7.70;28.60
356;DHT22;62514;48.112;11.566;2024-01-25T04:40:23;7.80;28.50
356;DHT22;62514;48.112;11.566;2024-01-25T04:42:49;7.70;28.70
356;DHT22;62514;48.112;11.566;2024-01-25T04:45:15;7.70;28.70
356;DHT22;62514;48.112;11.566;2024-01-25T04:47:40;7.70;28.90
356;DHT22;62514;48.112;11.566;2024-01-25T04:50:07;7.70;28.70
356;DHT22;62514;48.112;11.566;2024-01-25T04:52:33;7.70;29.00
356;DHT22;62514;48.112;11.566;2024-01-25T04:54:58;7.70;28.70
356;DHT22;62514;48.112;11.566;2024-01-25T04:57:24;7.70;28.70
356;DHT22;62514;48.112;11.566;2024-01-25T04:59:50;7.70;28.70
356;DHT22;62514;48.112;11.566;2024-01-25T05:02:16;7.70;28.40
356;DHT22;62514;48.112;11.566;2024-01-25T05:04:42;7.70;28.70
356;DHT22;62514;48.112;11.566;2024-01-25T05:07:08;7.80;28.70
356;DHT22;62514;48.112;11.566;2024-01-25T05:09:34;7.70;29.10
356;DHT22;62514;48.112;11.566;2024-01-25T05:12:00;7.70;29.10
356;DHT22;62514;48.112;11.566;2024-01-25T05:14:27;7.70;29.00
356;DHT22;62514;48.112;11.566;2024-01-25T05:16:53;7.70;28.80
356;DHT22;62514;48.112;11.566;2024-01-25T05:19:19;7.70;28.80
356;DHT22;62514;48.112;11.566;2024-01-25T05:21:45;7.70;28.70
356;DHT22;62514;48.112;11.566;2024-01-25T05:24:12;7.70;28.70
356;DHT22;62514;48.112;11.566;2024-01-25T05:26:38;7.60;28.60
356;DHT22;62514;48.112;11.566;2024-01-25T05:29:04;7.60;28.60
356;DHT22;62514;48.112;11.566;2024-01-25T05:31:30;7.60;29.10
356;DHT22;62514;48.112;11.566;2024-01-25T05:33:56;7.70;29.00
356;DHT22;62514;48.112;11.566;2024-01-25T05:36:22;7.70;29.20
356;DHT22;62514;48.112;11.566;2024-01-25T05:38:48;7.70;29.60
356;DHT22;62514;48.112;11.566;2024-01-25T05:41:14;7.60;29.60
356;DHT22;62514;48.112;11.566;2024-01-25T05:43:40;7.60;30.00
356;DHT22;62514;48.112;11.566;2024-01-25T05:46:06;7.50;30.30
356;DHT22;62514;48.112;11.566;2024-01-25T05:48:32;7.60;30.20
356;DHT22;62514;48.112;11.566;2024-01-25T05:50:57;7.60;29.70
356;DHT22;62514;48.112;11.566;2024-01-25T05:53:23;7.60;29.60
356;DHT22;62514;48.112;11.566;2024-01-25T05:55:49;7.50;30.00
356;DHT22;62514;48.112;11.566;2024-01-25T05:58:15;7.50;30.30
356;DHT22;62514;48.112;11.566;2024-01-25T06:00:42;7.50;30.30
356;DHT22;62514;48.112;11.566;2024-01-25T06:03:08;7.50;30.00
356;DHT22;62514;48.112;11.566;2024-01-25T06:05:33;7.50;30.20
356;DHT22;62514;48.112;11.566;2024-01-25T06:08:00;7.50;30.50
356;DHT22;62514;48.112;11.566;2024-01-25T06:10:26;7.50;30.50
356;DHT22;62514;48.112;11.566;2024-01-25T06:12:51;7.50;30.60
356;DHT22;62514;48.112;11.566;2024-01-25T06:15:17;7.40;30.90
356;DHT22;62514;48.112;11.566;2024-01-25T06:17:43;7.40;30.80
356;DHT22;62514;48.112;11.566;2024-01-25T06:20:10;7.40;31.00
356;DHT22;62514;48.112;11.566;2024-01-25T06:22:36;7.50;30.20
356;DHT22;62514;48.112;11.566;2024-01-25T06:25:02;7.40;29.30
356;DHT22;62514;48.112;11.566;2024-01-25T06:27:31;7.40;29.40
356;DHT22;62514;48.112;11.566;2024-01-25T06:29:57;7.50;29.50
356;DHT22;62514;48.112;11.566;2024-01-25T06:32:23;7.40;29.10
356;DHT22;62514;48.112;11.566;2024-01-25T06:34:49;7.40;28.60
356;DHT22;62514;48.112;11.566;2024-01-25T06:37:15;7.50;29.20
356;DHT22;62514;48.112;11.566;2024-01-25T06:39:41;7.50;28.90
356;DHT22;62514;48.112;11.566;2024-01-25T06:42:07;7.50;28.60
356;DHT22;62514;48.112;11.566;2024-01-25T06:44:33;7.40;28.20
356;DHT22;62514;48.112;11.566;2024-01-25T06:46:59;7.30;28.50
356;DHT22;62514;48.112;11.566;2024-01-25T06:49:25;7.30;28.50
356;DHT22;62514;48.112;11.566;2024-01-25T06:51:51;7.30;29.10
356;DHT22;62514;48.112;11.566;2024-01-25T06:54:17;7.20;28.50
356;DHT22;62514;48.112;11.566;2024-01-25T06:56:43;7.20;28.60
356;DHT22;62514;48.112;11.566;2024-01-25T06:59:09;7.20;28.70
356;DHT22;62514;48.112;11.566;2024-01-25T07:01:35;7.10;28.70
356;DHT22;62514;48.112;11.566;2024-01-25T07:04:00;7.10;29.10
356;DHT22;62514;48.112;11.566;2024-01-25T07:06:26;7.20;29.20
356;DHT22;62514;48.112;11.566;2024-01-25T07:08:52;7.00;29.20
356;DHT22;62514;48.112;11.566;2024-01-25T07:11:19;7.00;29.40
356;DHT22;62514;48.112;11.566;2024-01-25T07:13:45;7.00;29.40
356;DHT22;62514;48.112;11.566;2024-01-25T07:16:11;7.00;29.70
356;DHT22;62514;48.112;11.566;2024-01-25T07:18:37;6.90;30.00
356;DHT22;62514;48.112;11.566;2024-01-25T07:21:03;6.90;30.20
356;DHT22;62514;48.112;11.566;2024-01-25T07:23:30;6.90;30.30
356;DHT22;62514;48.112;11.566;2024-01-25T07:25:56;6.90;30.70
356;DHT22;62514;48.112;11.566;2024-01-25T07:28:22;7.00;30.70
356;DHT22;62514;48.112;11.566;2024-01-25T07:30:48;7.00;31.20
356;DHT22;62514;48.112;11.566;2024-01-25T07:33:15;6.90;31.40
356;DHT22;62514;48.112;11.566;2024-01-25T07:35:42;6.90;31.80
356;DHT22;62514;48.112;11.566;2024-01-25T07:38:12;6.90;31.70
356;DHT22;62514;48.112;11.566;2024-01-25T07:40:39;6.90;31.60
356;DHT22;62514;48.112;11.566;2024-01-25T07:43:05;6.90;31.30
356;DHT22;62514;48.112;11.566;2024-01-25T07:45:31;7.00;31.40
356;DHT22;62514;48.112;11.566;2024-01-25T07:47:58;6.90;31.70
356;DHT22;62514;48.112;11.566;2024-01-25T07:50:24;7.00;31.50
356;DHT22;62514;48.112;11.566;2024-01-25T07:52:50;7.00;30.80
356;DHT22;62514;48.112;11.566;2024-01-25T07:55:16;6.90;30.40
356;DHT22;62514;48.112;11.566;2024-01-25T07:57:42;7.00;30.70
356;DHT22;62514;48.112;11.566;2024-01-25T08:00:09;7.00;31.20
356;DHT22;62514;48.112;11.566;2024-01-25T08:02:36;6.90;31.20
356;DHT22;62514;48.112;11.566;2024-01-25T08:05:02;7.00;31.20
356;DHT22;62514;48.112;11.566;2024-01-25T08:07:29;7.00;30.90
356;DHT22;62514;48.112;11.566;2024-01-25T08:09:55;7.00;31.10
356;DHT22;62514;48.112;11.566;2024-01-25T08:12:26;7.00;30.40
356;DHT22;62514;48.112;11.566;2024-01-25T08:14:52;7.00;28.40
356;DHT22;62514;48.112;11.566;2024-01-25T08:17:18;7.10;28.20
356;DHT22;62514;48.112;11.566;2024-01-25T08:19:45;7.10;25.70
356;DHT22;62514;48.112;11.566;2024-01-25T08:22:12;7.10;25.60
356;DHT22;62514;48.112;11.566;2024-01-25T08:24:39;7.20;25.60
356;DHT22;62514;48.112;11.566;2024-01-25T08:27:05;7.20;24.40
356;DHT22;62514;48.112;11.566;2024-01-25T08:29:33;7.30;24.30
356;DHT22;62514;48.112;11.566;2024-01-25T08:31:59;7.20;22.90
356;DHT22;62514;48.112;11.566;2024-01-25T08:34:25;7.30;23.60
356;DHT22;62514;48.112;11.566;2024-01-25T08:36:51;7.40;22.90
356;DHT22;62514;48.112;11.566;2024-01-25T08:39:17;7.40;21.80
356;DHT22;62514;48.112;11.566;2024-01-25T08:41:43;7.50;21.90
356;DHT22;62514;48.112;11.566;2024-01-25T08:44:11;7.50;21.80
356;DHT22;62514;48.112;11.566;2024-01-25T08:46:36;7.70;21.30
356;DHT22;62514;48.112;11.566;2024-01-25T08:49:02;7.80;20.20
356;DHT22;62514;48.112;11.566;2024-01-25T08:51:34;7.80;19.20
356;DHT22;62514;48.112;11.566;2024-01-25T08:54:00;7.70;19.20
356;DHT22;62514;48.112;11.566;2024-01-25T08:56:25;7.70;19.60
356;DHT22;62514;48.112;11.566;2024-01-25T08:58:51;7.80;18.30
356;DHT22;62514;48.112;11.566;2024-01-25T09:01:18;7.80;18.50
356;DHT22;62514;48.112;11.566;2024-01-25T09:03:44;7.90;18.50
356;DHT22;62514;48.112;11.566;2024-01-25T09:06:10;8.00;17.00
356;DHT22;62514;48.112;11.566;2024-01-25T09:08:35;8.10;15.90
356;DHT22;62514;48.112;11.566;2024-01-25T09:11:01;8.10;15.80
356;DHT22;62514;48.112;11.566;2024-01-25T09:13:27;8.10;15.10
356;DHT22;62514;48.112;11.566;2024-01-25T09:15:53;8.10;15.30
356;DHT22;62514;48.112;11.566;2024-01-25T09:18:19;8.00;14.50
356;DHT22;62514;48.112;11.566;2024-01-25T09:20:46;8.00;14.80
356;DHT22;62514;48.112;11.566;2024-01-25T09:23:14;8.10;14.30
356;DHT22;62514;48.112;11.566;2024-01-25T09:25:44;7.90;14.30
356;DHT22;62514;48.112;11.566;2024-01-25T09:28:10;8.00;14.30
356;DHT22;62514;48.112;11.566;2024-01-25T09:30:40;8.00;13.50
356;DHT22;62514;48.112;11.566;2024-01-25T09:33:06;7.90;13.90
356;DHT22;62514;48.112;11.566;2024-01-25T09:35:32;7.90;13.10
356;DHT22;62514;48.112;11.566;2024-01-25T09:37:59;7.90;13.50
356;DHT22;62514;48.112;11.566;2024-01-25T09:40:25;8.00;11.80
356;DHT22;62514;48.112;11.566;2024-01-25T09:42:52;8.10;10.90
356;DHT22;62514;48.112;11.566;2024-01-25T09:45:19;8.20;10.30
356;DHT22;62514;48.112;11.566;2024-01-25T09:47:45;8.00;10.70
356;DHT22;62514;48.112;11.566;2024-01-25T09:50:12;8.00;10.50
356;DHT22;62514;48.112;11.566;2024-01-25T09:52:38;8.00;10.60
356;DHT22;62514;48.112;11.566;2024-01-25T09:55:07;8.10;11.50
356;DHT22;62514;48.112;11.566;2024-01-25T09:57:35;8.10;11.20
356;DHT22;62514;48.112;11.566;2024-01-25T10:00:03;8.30;11.50
356;DHT22;62514;48.112;11.566;2024-01-25T10:02:30;8.40;11.70
356;DHT22;62514;48.112;11.566;2024-01-25T10:04:58;8.60;11.50
356;DHT22;62514;48.112;11.566;2024-01-25T10:07:45;8.60;11.60
356;DHT22;62514;48.112;11.566;2024-01-25T10:10:12;8.90;11.50
356;DHT22;62514;48.112;11.566;2024-01-25T10:12:40;8.90;9.10
356;DHT22;62514;48.112;11.566;2024-01-25T10:15:06;8.90;9.10
356;DHT22;62514;48.112;11.566;2024-01-25T10:17:32;9.10;8.10
356;DHT22;62514;48.112;11.566;2024-01-25T10:19:58;8.80;8.60
356;DHT22;62514;48.112;11.566;2024-01-25T10:22:25;8.90;9.10
356;DHT22;62514;48.112;11.566;2024-01-25T10:24:50;8.90;7.20
356;DHT22;62514;48.112;11.566;2024-01-25T10:27:18;8.80;7.70
356;DHT22;62514;48.112;11.566;2024-01-25T10:29:44;8.80;8.70
356;DHT22;62514;48.112;11.566;2024-01-25T10:32:11;8.30;8.90
356;DHT22;62514;48.112;11.566;2024-01-25T10:34:38;8.40;9.30
356;DHT22;62514;48.112;11.566;2024-01-25T10:37:06;8.60;8.90
356;DHT22;62514;48.112;11.566;2024-01-25T10:39:33;8.60;8.50
356;DHT22;62514;48.112;11.566;2024-01-25T10:42:00;8.40;7.90
356;DHT22;62514;48.112;11.566;2024-01-25T10:44:26;8.20;8.90
356;DHT22;62514;48.112;11.566;2024-01-25T10:46:52;8.10;8.80
356;DHT22;62514;48.112;11.566;2024-01-25T10:49:20;8.30;8.90
356;DHT22;62514;48.112;11.566;2024-01-25T10:51:47;8.40;8.90
356;DHT22;62514;48.112;11.566;2024-01-25T10:54:14;8.60;8.30
356;DHT22;62514;48.112;11.566;2024-01-25T10:56:47;8.60;9.10
356;DHT22;62514;48.112;11.566;2024-01-25T10:59:15;8.40;10.20
356;DHT22;62514;48.112;11.566;2024-01-25T11:01:47;8.30;10.30
356;DHT22;62514;48.112;11.566;2024-01-25T11:04:17;8.40;10.60
356;DHT22;62514;48.112;11.566;2024-01-25T11:06:46;8.60;10.50
356;DHT22;62514;48.112;11.566;2024-01-25T11:09:20;8.40;8.90
356;DHT22;62514;48.112;11.566;2024-01-25T11:11:50;8.60;9.00
356;DHT22;62514;48.112;11.566;2024-01-25T11:14:20;8.60;7.30
356;DHT22;62514;48.112;11.566;2024-01-25T11:16:46;8.40;8.70
356;DHT22;62514;48.112;11.566;2024-01-25T11:19:20;8.40;8.90
356;DHT22;62514;48.112;11.566;2024-01-25T11:21:48;8.40;8.90
356;DHT22;62514;48.112;11.566;2024-01-25T11:24:21;8.30;9.70
356;DHT22;62514;48.112;11.566;2024-01-25T11:26:48;8.20;10.00
356;DHT22;62514;48.112;11.566;2024-01-25T11:29:19;8.30;10.50
356;DHT22;62514;48.112;11.566;2024-01-25T11:31:47;8.40;10.80
356;DHT22;62514;48.112;11.566;2024-01-25T11:34:13;8.30;10.70
356;DHT22;62514;48.112;11.566;2024-01-25T11:36:41;8.10;11.00
356;DHT22;62514;48.112;11.566;2024-01-25T11:39:11;8.50;11.50
356;DHT22;62514;48.112;11.566;2024-01-25T11:41:37;9.20;9.30
356;DHT22;62514;48.112;11.566;2024-01-25T11:44:04;9.60;6.10
356;DHT22;62514;48.112;11.566;2024-01-25T11:46:33;9.70;5.10
356;DHT22;62514;48.112;11.566;2024-01-25T11:48:59;9.50;6.20
356;DHT22;62514;48.112;11.566;2024-01-25T11:51:25;9.60;5.60
356;DHT22;62514;48.112;11.566;2024-01-25T11:53:52;9.60;4.70
356;DHT22;62514;48.112;11.566;2024-01-25T11:56:24;9.60;5.40
356;DHT22;62514;48.112;11.566;2024-01-25T11:58:51;9.90;5.60
356;DHT22;62514;48.112;11.566;2024-01-25T12:01:17;10.20;4.10
356;DHT22;62514;48.112;11.566;2024-01-25T12:03:44;9.90;4.00
356;DHT22;62514;48.112;11.566;2024-01-25T12:06:10;9.80;5.10
356;DHT22;62514;48.112;11.566;2024-01-25T12:08:36;10.20;4.60
356;DHT22;62514;48.112;11.566;2024-01-25T12:11:06;10.50;2.20
356;DHT22;62514;48.112;11.566;2024-01-25T12:13:38;10.60;1.80
356;DHT22;62514;48.112;11.566;2024-01-25T12:16:04;10.70;2.10
356;DHT22;62514;48.112;11.566;2024-01-25T12:18:31;10.70;1.00
356;DHT22;62514;48.112;11.566;2024-01-25T12:20:59;10.70;1.00
356;DHT22;62514;48.112;11.566;2024-01-25T12:23:36;10.70;1.00
356;DHT22;62514;48.112;11.566;2024-01-25T12:26:03;9.90;1.00
356;DHT22;62514;48.112;11.566;2024-01-25T12:28:31;9.60;2.00
356;DHT22;62514;48.112;11.566;2024-01-25T12:31:02;9.40;3.00
356;DHT22;62514;48.112;11.566;2024-01-25T12:33:32;9.60;3.50
356;DHT22;62514;48.112;11.566;2024-01-25T12:35:58;10.00;2.10
356;DHT22;62514;48.112;11.566;2024-01-25T12:38:25;10.10;1.40
356;DHT22;62514;48.112;11.566;2024-01-25T12:40:52;10.10;1.00
356;DHT22;62514;48.112;11.566;2024-01-25T12:43:19;10.10;1.70
356;DHT22;62514;48.112;11.566;2024-01-25T12:45:47;10.20;1.40
356;DHT22;62514;48.112;11.566;2024-01-25T12:48:13;10.10;1.50
356;DHT22;62514;48.112;11.566;2024-01-25T12:50:39;10.30;1.10
356;DHT22;62514;48.112;11.566;2024-01-25T12:53:05;10.60;1.00
356;DHT22;62514;48.112;11.566;2024-01-25T12:55:32;10.60;1.00
356;DHT22;62514;48.112;11.566;2024-01-25T12:57:59;10.30;1.00
356;DHT22;62514;48.112;11.566;2024-01-25T13:00:25;10.60;1.00
356;DHT22;62514;48.112;11.566;2024-01-25T13:02:51;10.50;1.00
356;DHT22;62514;48.112;11.566;2024-01-25T13:05:19;10.00;1.00
356;DHT22;62514;48.112;11.566;2024-01-25T13:07:45;10.10;1.00
356;DHT22;62514;48.112;11.566;2024-01-25T13:10:11;10.30;1.00
356;DHT22;62514;48.112;11.566;2024-01-25T13:12:38;10.40;1.00
356;DHT22;62514;48.112;11.566;2024-01-25T13:15:05;10.30;1.00
356;DHT22;62514;48.112;11.566;2024-01-25T13:17:31;9.90;1.00
356;DHT22;62514;48.112;11.566;2024-01-25T13:19:57;9.80;1.00
356;DHT22;62514;48.112;11.566;2024-01-25T13:22:23;10.00;1.00
356;DHT22;62514;48.112;11.566;2024-01-25T13:24:50;9.90;1.00
356;DHT22;62514;48.112;11.566;2024-01-25T13:27:17;9.90;1.00
356;DHT22;62514;48.112;11.566;2024-01-25T13:29:43;9.70;1.90
356;DHT22;62514;48.112;11.566;2024-01-25T13:32:09;9.60;1.90
356;DHT22;62514;48.112;11.566;2024-01-25T13:34:35;9.40;1.90
356;DHT22;62514;48.112;11.566;2024-01-25T13:37:01;9.40;3.00
356;DHT22;62514;48.112;11.566;2024-01-25T13:39:27;9.40;2.20
356;DHT22;62514;48.112;11.566;2024-01-25T13:41:54;9.70;2.10
356;DHT22;62514;48.112;11.566;2024-01-25T13:44:22;9.90;1.00
356;DHT22;62514;48.112;11.566;2024-01-25T13:46:48;10.00;1.00
356;DHT22;62514;48.112;11.566;2024-01-25T13:49:14;10.10;1.00
356;DHT22;62514;48.112;11.566;2024-01-25T13:51:40;10.00;1.00
356;DHT22;62514;48.112;11.566;2024-01-25T13:54:05;10.10;1.00
356;DHT22;62514;48.112;11.566;2024-01-25T13:56:31;10.10;1.00
356;DHT22;62514;48.112;11.566;2024-01-25T13:58:57;9.90;1.00
356;DHT22;62514;48.112;11.566;2024-01-25T14:01:23;9.90;1.00
356;DHT22;62514;48.112;11.566;2024-01-25T14:03:49;10.00;1.00
356;DHT22;62514;48.112;11.566;2024-01-25T14:06:16;9.90;1.00
356;DHT22;62514;48.112;11.566;2024-01-25T14:08:42;9.60;1.00
356;DHT22;62514;48.112;11.566;2024-01-25T14:11:09;9.60;1.00
356;DHT22;62514;48.112;11.566;2024-01-25T14:13:35;9.60;1.00
356;DHT22;62514;48.112;11.566;2024-01-25T14:16:01;9.50;1.90
356;DHT22;62514;48.112;11.566;2024-01-25T14:18:28;9.50;1.00
356;DHT22;62514;48.112;11.566;2024-01-25T14:20:56;9.60;1.20
356;DHT22;62514;48.112;11.566;2024-01-25T14:23:22;9.70;1.00
356;DHT22;62514;48.112;11.566;2024-01-25T14:25:48;9.70;1.00
356;DHT22;62514;48.112;11.566;2024-01-25T14:28:14;9.70;1.00
356;DHT22;62514;48.112;11.566;2024-01-25T14:30:40;9.70;1.00
356;DHT22;62514;48.112;11.566;2024-01-25T14:33:06;9.70;1.10
356;DHT22;62514;48.112;11.566;2024-01-25T14:35:32;9.70;1.00
356;DHT22;62514;48.112;11.566;2024-01-25T14:37:59;9.80;1.00
356;DHT22;62514;48.112;11.566;2024-01-25T14:40:25;9.80;1.00
356;DHT22;62514;48.112;11.566;2024-01-25T14:42:51;9.90;1.00
356;DHT22;62514;48.112;11.566;2024-01-25T14:45:17;9.90;1.00
356;DHT22;62514;48.112;11.566;2024-01-25T14:47:43;9.70;1.20
356;DHT22;62514;48.112;11.566;2024-01-25T14:50:09;9.60;2.00
356;DHT22;62514;48.112;11.566;2024-01-25T14:52:35;9.60;2.60
356;DHT22;62514;48.112;11.566;2024-01-25T14:55:01;9.50;2.20
356;DHT22;62514;48.112;11.566;2024-01-25T14:57:27;9.50;2.40
356;DHT22;62514;48.112;11.566;2024-01-25T14:59:53;9.50;2.70
356;DHT22;62514;48.112;11.566;2024-01-25T15:02:19;9.40;2.90
356;DHT22;62514;48.112;11.566;2024-01-25T15:04:45;9.30;3.20
356;DHT22;62514;48.112;11.566;2024-01-25T15:07:11;9.20;4.30
356;DHT22;62514;48.112;11.566;2024-01-25T15:09:37;9.20;3.90
356;DHT22;62514;48.112;11.566;2024-01-25T15:12:04;9.30;4.20
356;DHT22;62514;48.112;11.566;2024-01-25T15:14:30;9.40;4.10
356;DHT22;62514;48.112;11.566;2024-01-25T15:16:55;9.20;4.30
356;DHT22;62514;48.112;11.566;2024-01-25T15:19:21;9.20;4.40
356;DHT22;62514;48.112;11.566;2024-01-25T15:21:47;9.20;5.10
356;DHT22;62514;48.112;11.566;2024-01-25T15:24:13;9.20;5.10
356;DHT22;62514;48.112;11.566;2024-01-25T15:26:40;9.20;5.10
356;DHT22;62514;48.112;11.566;2024-01-25T15:29:06;9.30;4.90
356;DHT22;62514;48.112;11.566;2024-01-25T15:31:32;9.30;4.70
356;DHT22;62514;48.112;11.566;2024-01-25T15:33:58;9.40;4.70
356;DHT22;62514;48.112;11.566;2024-01-25T15:36:24;9.50;4.70
356;DHT22;62514;48.112;11.566;2024-01-25T15:38:50;9.30;5.30
356;DHT22;62514;48.112;11.566;2024-01-25T15:41:16;9.20;5.30
356;DHT22;62514;48.112;11.566;2024-01-25T15:43:44;9.10;6.00
356;DHT22;62514;48.112;11.566;2024-01-25T15:46:10;9.00;6.70
356;DHT22;62514;48.112;11.566;2024-01-25T15:48:36;8.90;7.70
356;DHT22;62514;48.112;11.566;2024-01-25T15:51:02;8.80;8.30
356;DHT22;62514;48.112;11.566;2024-01-25T15:53:28;8.80;9.20
356;DHT22;62514;48.112;11.566;2024-01-25T15:55:54;8.90;9.30
356;DHT22;62514;48.112;11.566;2024-01-25T15:58:21;9.00;9.60